sensor_id;sensor_type;location;lat;lon;timestamp;temperature;humidity
51863;DHT22;37900;52.996;6.278;2023-06-24T00:01:34;21.10;89.30
51863;DHT22;37900;52.996;6.278;2023-06-24T00:04:00;21.10;88.80
51863;DHT22;37900;52.996;6.278;2023-06-24T00:06:25;21.20;88.80
51863;DHT22;37900;52.996;6.278;2023-06-24T00:08:51;21.10;88.80
51863;DHT22;37900;52.996;6.278;2023-06-24T00:11:17;21.10;88.90
51863;DHT22;37900;52.996;6.278;2023-06-24T00:13:43;21.10;88.90
51863;DHT22;37900;52.996;6.278;2023-06-24T00:16:09;21.10;88.90
51863;DHT22;37900;52.996;6.278;2023-06-24T00:18:35;21.10;88.90
51863;DHT22;37900;52.996;6.278;2023-06-24T00:21:01;21.10;88.90
51863;DHT22;37900;52.996;6.278;2023-06-24T00:23:28;21.10;88.90
51863;DHT22;37900;52.996;6.278;2023-06-24T00:25:54;21.00;88.80
51863;DHT22;37900;52.996;6.278;2023-06-24T00:28:20;21.10;89.00
51863;DHT22;37900;52.996;6.278;2023-06-24T00:30:46;21.10;89.00
51863;DHT22;37900;52.996;6.278;2023-06-24T00:33:12;21.10;89.00
51863;DHT22;37900;52.996;6.278;2023-06-24T00:35:42;21.10;89.00
51863;DHT22;37900;52.996;6.278;2023-06-24T00:38:08;21.10;89.00
51863;DHT22;37900;52.996;6.278;2023-06-24T00:40:34;21.10;89.00
51863;DHT22;37900;52.996;6.278;2023-06-24T00:42:59;21.10;89.00
51863;DHT22;37900;52.996;6.278;2023-06-24T00:45:27;21.10;89.00
51863;DHT22;37900;52.996;6.278;2023-06-24T00:47:53;21.00;89.00
51863;DHT22;37900;52.996;6.278;2023-06-24T00:50:20;21.10;89.10
51863;DHT22;37900;52.996;6.278;2023-06-24T00:52:45;21.10;89.10
51863;DHT22;37900;52.996;6.278;2023-06-24T00:55:11;21.10;89.10
51863;DHT22;37900;52.996;6.278;2023-06-24T00:57:39;21.10;89.10
51863;DHT22;37900;52.996;6.278;2023-06-24T01:00:06;21.00;89.10
51863;DHT22;37900;52.996;6.278;2023-06-24T01:02:38;21.10;89.20
51863;DHT22;37900;52.996;6.278;2023-06-24T01:05:05;21.00;89.10
51863;DHT22;37900;52.996;6.278;2023-06-24T01:07:32;21.00;89.20
51863;DHT22;37900;52.996;6.278;2023-06-24T01:09:58;21.00;89.10
51863;DHT22;37900;52.996;6.278;2023-06-24T01:12:25;21.00;89.10
51863;DHT22;37900;52.996;6.278;2023-06-24T01:14:51;21.00;89.10
51863;DHT22;37900;52.996;6.278;2023-06-24T01:17:22;21.00;89.10
51863;DHT22;37900;52.996;6.278;2023-06-24T01:25:31;21.00;89.10
51863;DHT22;37900;52.996;6.278;2023-06-24T01:31:30;21.00;89.10
51863;DHT22;37900;52.996;6.278;2023-06-24T01:34:34;21.00;89.10
51863;DHT22;37900;52.996;6.278;2023-06-24T01:36:27;21.00;89.10
51863;DHT22;37900;52.996;6.278;2023-06-24T01:38:55;21.00;89.10
51863;DHT22;37900;52.996;6.278;2023-06-24T01:41:24;21.00;89.20
51863;DHT22;37900;52.996;6.278;2023-06-24T01:43:53;21.00;89.10
51863;DHT22;37900;52.996;6.278;2023-06-24T01:46:21;21.00;89.70
51863;DHT22;37900;52.996;6.278;2023-06-24T01:48:47;21.00;89.10
51863;DHT22;37900;52.996;6.278;2023-06-24T01:51:15;21.00;89.20
51863;DHT22;37900;52.996;6.278;2023-06-24T01:53:44;21.00;89.10
51863;DHT22;37900;52.996;6.278;2023-06-24T01:56:12;21.00;89.20
51863;DHT22;37900;52.996;6.278;2023-06-24T01:58:40;21.00;89.20
51863;DHT22;37900;52.996;6.278;2023-06-24T02:01:05;21.00;89.20
51863;DHT22;37900;52.996;6.278;2023-06-24T02:03:31;21.00;89.20
51863;DHT22;37900;52.996;6.278;2023-06-24T02:05:58;21.00;89.20
51863;DHT22;37900;52.996;6.278;2023-06-24T02:08:24;21.00;89.70
51863;DHT22;37900;52.996;6.278;2023-06-24T02:10:51;21.00;89.20
51863;DHT22;37900;52.996;6.278;2023-06-24T02:13:16;21.00;89.20
51863;DHT22;37900;52.996;6.278;2023-06-24T02:15:43;21.00;89.20
51863;DHT22;37900;52.996;6.278;2023-06-24T02:18:09;21.00;89.20
51863;DHT22;37900;52.996;6.278;2023-06-24T02:20:36;21.00;89.20
51863;DHT22;37900;52.996;6.278;2023-06-24T02:23:04;21.00;89.20
51863;DHT22;37900;52.996;6.278;2023-06-24T02:25:32;21.00;89.10
51863;DHT22;37900;52.996;6.278;2023-06-24T02:27:58;21.00;89.20
51863;DHT22;37900;52.996;6.278;2023-06-24T02:30:23;21.00;89.20
51863;DHT22;37900;52.996;6.278;2023-06-24T02:32:49;21.00;89.20
51863;DHT22;37900;52.996;6.278;2023-06-24T02:35:15;21.00;89.20
51863;DHT22;37900;52.996;6.278;2023-06-24T02:37:41;21.00;89.10
51863;DHT22;37900;52.996;6.278;2023-06-24T02:40:07;21.00;89.10
51863;DHT22;37900;52.996;6.278;2023-06-24T02:42:33;21.00;89.10
51863;DHT22;37900;52.996;6.278;2023-06-24T02:44:59;21.00;89.00
51863;DHT22;37900;52.996;6.278;2023-06-24T02:47:25;21.00;89.10
51863;DHT22;37900;52.996;6.278;2023-06-24T02:49:51;21.00;89.10
51863;DHT22;37900;52.996;6.278;2023-06-24T02:52:19;21.00;89.10
51863;DHT22;37900;52.996;6.278;2023-06-24T02:54:44;21.00;89.10
51863;DHT22;37900;52.996;6.278;2023-06-24T02:57:10;21.00;89.10
51863;DHT22;37900;52.996;6.278;2023-06-24T02:59:36;21.00;89.00
51863;DHT22;37900;52.996;6.278;2023-06-24T03:02:02;21.00;89.10
51863;DHT22;37900;52.996;6.278;2023-06-24T03:04:28;20.90;89.00
51863;DHT22;37900;52.996;6.278;2023-06-24T03:06:54;20.90;89.00
51863;DHT22;37900;52.996;6.278;2023-06-24T03:09:20;20.90;89.00
51863;DHT22;37900;52.996;6.278;2023-06-24T03:11:45;21.00;89.00
51863;DHT22;37900;52.996;6.278;2023-06-24T03:14:11;20.90;89.00
51863;DHT22;37900;52.996;6.278;2023-06-24T03:16:37;20.90;89.00
51863;DHT22;37900;52.996;6.278;2023-06-24T03:19:06;20.90;89.00
51863;DHT22;37900;52.996;6.278;2023-06-24T03:21:32;20.90;89.00
51863;DHT22;37900;52.996;6.278;2023-06-24T03:23:58;20.90;89.00
51863;DHT22;37900;52.996;6.278;2023-06-24T03:26:31;20.90;89.00
51863;DHT22;37900;52.996;6.278;2023-06-24T03:28:58;20.90;89.00
51863;DHT22;37900;52.996;6.278;2023-06-24T03:31:24;20.90;88.90
51863;DHT22;37900;52.996;6.278;2023-06-24T03:33:49;20.90;89.00
51863;DHT22;37900;52.996;6.278;2023-06-24T03:36:15;20.90;89.00
51863;DHT22;37900;52.996;6.278;2023-06-24T03:38:41;20.90;89.00
51863;DHT22;37900;52.996;6.278;2023-06-24T03:41:06;20.90;89.00
51863;DHT22;37900;52.996;6.278;2023-06-24T03:43:32;20.90;89.00
51863;DHT22;37900;52.996;6.278;2023-06-24T03:45:57;20.90;89.00
51863;DHT22;37900;52.996;6.278;2023-06-24T03:48:23;20.90;89.00
51863;DHT22;37900;52.996;6.278;2023-06-24T03:50:49;20.90;88.90
51863;DHT22;37900;52.996;6.278;2023-06-24T03:53:14;20.90;88.90
51863;DHT22;37900;52.996;6.278;2023-06-24T03:55:40;20.90;89.00
51863;DHT22;37900;52.996;6.278;2023-06-24T03:58:05;20.90;88.90
51863;DHT22;37900;52.996;6.278;2023-06-24T04:00:31;20.90;88.90
51863;DHT22;37900;52.996;6.278;2023-06-24T04:02:57;20.90;88.90
51863;DHT22;37900;52.996;6.278;2023-06-24T04:05:26;20.90;88.90
51863;DHT22;37900;52.996;6.278;2023-06-24T04:07:52;20.90;88.90
51863;DHT22;37900;52.996;6.278;2023-06-24T04:10:18;20.90;88.90
51863;DHT22;37900;52.996;6.278;2023-06-24T04:12:44;20.90;88.90
51863;DHT22;37900;52.996;6.278;2023-06-24T04:15:10;20.90;88.90
51863;DHT22;37900;52.996;6.278;2023-06-24T04:17:36;20.90;88.90
51863;DHT22;37900;52.996;6.278;2023-06-24T04:20:02;20.90;88.90
51863;DHT22;37900;52.996;6.278;2023-06-24T04:22:34;20.90;88.90
51863;DHT22;37900;52.996;6.278;2023-06-24T04:25:00;20.80;88.80
51863;DHT22;37900;52.996;6.278;2023-06-24T04:27:25;20.90;88.90
51863;DHT22;37900;52.996;6.278;2023-06-24T04:29:51;20.90;88.90
51863;DHT22;37900;52.996;6.278;2023-06-24T04:32:16;20.90;88.90
51863;DHT22;37900;52.996;6.278;2023-06-24T04:34:42;20.90;88.90
51863;DHT22;37900;52.996;6.278;2023-06-24T04:37:08;20.90;89.00
51863;DHT22;37900;52.996;6.278;2023-06-24T04:39:33;20.90;89.00
51863;DHT22;37900;52.996;6.278;2023-06-24T04:41:59;20.90;88.90
51863;DHT22;37900;52.996;6.278;2023-06-24T04:44:25;20.90;88.90
51863;DHT22;37900;52.996;6.278;2023-06-24T04:46:51;20.90;88.90
51863;DHT22;37900;52.996;6.278;2023-06-24T04:49:18;20.90;88.90
51863;DHT22;37900;52.996;6.278;2023-06-24T04:51:43;20.90;88.90
51863;DHT22;37900;52.996;6.278;2023-06-24T04:54:09;20.90;89.00
51863;DHT22;37900;52.996;6.278;2023-06-24T04:56:34;20.90;89.00
51863;DHT22;37900;52.996;6.278;2023-06-24T04:59:00;20.90;89.00
51863;DHT22;37900;52.996;6.278;2023-06-24T05:01:26;20.90;89.00
51863;DHT22;37900;52.996;6.278;2023-06-24T05:03:51;20.90;89.10
51863;DHT22;37900;52.996;6.278;2023-06-24T05:06:17;20.90;89.10
51863;DHT22;37900;52.996;6.278;2023-06-24T05:08:43;20.90;89.10
51863;DHT22;37900;52.996;6.278;2023-06-24T05:11:08;20.90;89.20
51863;DHT22;37900;52.996;6.278;2023-06-24T05:13:34;20.90;89.20
51863;DHT22;37900;52.996;6.278;2023-06-24T05:15:59;20.90;89.50
51863;DHT22;37900;52.996;6.278;2023-06-24T05:18:25;20.90;89.20
51863;DHT22;37900;52.996;6.278;2023-06-24T05:20:50;20.90;89.30
51863;DHT22;37900;52.996;6.278;2023-06-24T05:23:16;20.90;89.30
51863;DHT22;37900;52.996;6.278;2023-06-24T05:25:42;20.90;89.40
51863;DHT22;37900;52.996;6.278;2023-06-24T05:28:07;20.90;89.40
51863;DHT22;37900;52.996;6.278;2023-06-24T05:30:33;20.90;89.40
51863;DHT22;37900;52.996;6.278;2023-06-24T05:32:58;20.90;89.50
51863;DHT22;37900;52.996;6.278;2023-06-24T05:35:24;20.90;89.50
51863;DHT22;37900;52.996;6.278;2023-06-24T05:37:49;20.90;89.50
51863;DHT22;37900;52.996;6.278;2023-06-24T05:40:15;20.90;89.60
51863;DHT22;37900;52.996;6.278;2023-06-24T05:42:41;21.00;89.60
51863;DHT22;37900;52.996;6.278;2023-06-24T05:45:06;21.00;89.60
51863;DHT22;37900;52.996;6.278;2023-06-24T05:47:32;21.00;89.70
51863;DHT22;37900;52.996;6.278;2023-06-24T05:49:58;20.90;89.60
51863;DHT22;37900;52.996;6.278;2023-06-24T05:52:24;20.90;89.70
51863;DHT22;37900;52.996;6.278;2023-06-24T05:54:49;21.00;89.70
51863;DHT22;37900;52.996;6.278;2023-06-24T05:57:15;20.90;89.70
51863;DHT22;37900;52.996;6.278;2023-06-24T05:59:40;21.00;89.80
51863;DHT22;37900;52.996;6.278;2023-06-24T06:02:06;21.00;89.80
51863;DHT22;37900;52.996;6.278;2023-06-24T06:04:32;21.00;89.90
51863;DHT22;37900;52.996;6.278;2023-06-24T06:06:57;21.00;89.90
51863;DHT22;37900;52.996;6.278;2023-06-24T06:09:23;21.00;89.90
51863;DHT22;37900;52.996;6.278;2023-06-24T06:11:49;21.00;90.00
51863;DHT22;37900;52.996;6.278;2023-06-24T06:14:14;21.00;90.00
51863;DHT22;37900;52.996;6.278;2023-06-24T06:16:40;21.00;90.00
51863;DHT22;37900;52.996;6.278;2023-06-24T06:19:05;21.00;90.00
51863;DHT22;37900;52.996;6.278;2023-06-24T06:21:31;21.00;90.00
51863;DHT22;37900;52.996;6.278;2023-06-24T06:23:57;21.00;90.00
51863;DHT22;37900;52.996;6.278;2023-06-24T06:26:23;21.00;90.00
51863;DHT22;37900;52.996;6.278;2023-06-24T06:28:48;21.00;90.00
51863;DHT22;37900;52.996;6.278;2023-06-24T06:31:15;21.00;90.00
51863;DHT22;37900;52.996;6.278;2023-06-24T06:33:40;21.00;90.00
51863;DHT22;37900;52.996;6.278;2023-06-24T06:36:06;21.10;90.10
51863;DHT22;37900;52.996;6.278;2023-06-24T06:38:32;21.10;90.10
51863;DHT22;37900;52.996;6.278;2023-06-24T06:40:58;21.10;90.10
51863;DHT22;37900;52.996;6.278;2023-06-24T06:43:24;21.10;90.40
51863;DHT22;37900;52.996;6.278;2023-06-24T06:45:50;21.10;90.10
51863;DHT22;37900;52.996;6.278;2023-06-24T06:48:15;21.10;90.10
51863;DHT22;37900;52.996;6.278;2023-06-24T06:50:41;21.10;90.10
51863;DHT22;37900;52.996;6.278;2023-06-24T06:53:06;21.00;90.10
51863;DHT22;37900;52.996;6.278;2023-06-24T06:55:32;21.10;90.10
51863;DHT22;37900;52.996;6.278;2023-06-24T06:57:58;21.10;90.20
51863;DHT22;37900;52.996;6.278;2023-06-24T07:00:23;21.10;90.10
51863;DHT22;37900;52.996;6.278;2023-06-24T07:02:49;21.10;90.20
51863;DHT22;37900;52.996;6.278;2023-06-24T07:05:15;21.10;90.20
51863;DHT22;37900;52.996;6.278;2023-06-24T07:07:40;21.10;90.20
51863;DHT22;37900;52.996;6.278;2023-06-24T07:10:07;21.10;90.20
51863;DHT22;37900;52.996;6.278;2023-06-24T07:12:32;21.10;90.20
51863;DHT22;37900;52.996;6.278;2023-06-24T07:14:58;21.10;90.20
51863;DHT22;37900;52.996;6.278;2023-06-24T07:17:24;21.10;90.20
51863;DHT22;37900;52.996;6.278;2023-06-24T07:19:49;21.10;90.20
51863;DHT22;37900;52.996;6.278;2023-06-24T07:22:15;21.00;90.20
51863;DHT22;37900;52.996;6.278;2023-06-24T07:24:43;21.10;90.20
51863;DHT22;37900;52.996;6.278;2023-06-24T07:27:09;21.10;90.20
51863;DHT22;37900;52.996;6.278;2023-06-24T07:29:35;21.10;90.30
51863;DHT22;37900;52.996;6.278;2023-06-24T07:32:01;21.10;90.30
51863;DHT22;37900;52.996;6.278;2023-06-24T07:34:28;21.10;90.30
51863;DHT22;37900;52.996;6.278;2023-06-24T07:36:54;21.10;90.30
51863;DHT22;37900;52.996;6.278;2023-06-24T07:39:20;21.10;90.30
51863;DHT22;37900;52.996;6.278;2023-06-24T07:41:45;21.10;90.30
51863;DHT22;37900;52.996;6.278;2023-06-24T07:44:11;21.10;90.30
51863;DHT22;37900;52.996;6.278;2023-06-24T07:46:37;21.10;90.30
51863;DHT22;37900;52.996;6.278;2023-06-24T07:49:03;21.10;90.30
51863;DHT22;37900;52.996;6.278;2023-06-24T07:51:29;21.10;90.30
51863;DHT22;37900;52.996;6.278;2023-06-24T07:53:54;21.10;90.30
51863;DHT22;37900;52.996;6.278;2023-06-24T07:56:20;21.10;90.30
51863;DHT22;37900;52.996;6.278;2023-06-24T07:58:46;21.10;90.30
51863;DHT22;37900;52.996;6.278;2023-06-24T08:01:11;21.10;90.30
51863;DHT22;37900;52.996;6.278;2023-06-24T08:03:37;21.10;90.30
51863;DHT22;37900;52.996;6.278;2023-06-24T08:06:03;21.10;90.30
51863;DHT22;37900;52.996;6.278;2023-06-24T08:08:28;21.10;90.30
51863;DHT22;37900;52.996;6.278;2023-06-24T08:10:54;21.10;90.30
51863;DHT22;37900;52.996;6.278;2023-06-24T08:13:20;21.10;90.30
51863;DHT22;37900;52.996;6.278;2023-06-24T08:15:46;21.10;90.30
51863;DHT22;37900;52.996;6.278;2023-06-24T08:18:12;21.10;90.30
51863;DHT22;37900;52.996;6.278;2023-06-24T08:20:37;21.10;90.30
51863;DHT22;37900;52.996;6.278;2023-06-24T08:23:03;21.10;90.30
51863;DHT22;37900;52.996;6.278;2023-06-24T08:25:28;21.10;90.30
51863;DHT22;37900;52.996;6.278;2023-06-24T08:27:54;21.10;90.30
51863;DHT22;37900;52.996;6.278;2023-06-24T08:30:20;21.10;90.30
51863;DHT22;37900;52.996;6.278;2023-06-24T08:32:45;21.10;90.30
51863;DHT22;37900;52.996;6.278;2023-06-24T08:35:11;21.10;90.30
51863;DHT22;37900;52.996;6.278;2023-06-24T08:37:36;21.10;90.30
51863;DHT22;37900;52.996;6.278;2023-06-24T08:40:03;21.10;90.30
51863;DHT22;37900;52.996;6.278;2023-06-24T08:42:30;21.10;90.40
51863;DHT22;37900;52.996;6.278;2023-06-24T08:44:55;21.10;90.40
51863;DHT22;37900;52.996;6.278;2023-06-24T08:47:22;21.10;90.40
51863;DHT22;37900;52.996;6.278;2023-06-24T08:49:51;21.10;90.40
51863;DHT22;37900;52.996;6.278;2023-06-24T08:52:21;21.10;90.40
51863;DHT22;37900;52.996;6.278;2023-06-24T08:54:49;21.10;90.40
51863;DHT22;37900;52.996;6.278;2023-06-24T08:57:15;21.10;90.40
51863;DHT22;37900;52.996;6.278;2023-06-24T08:59:42;21.10;90.40
51863;DHT22;37900;52.996;6.278;2023-06-24T09:02:08;21.10;90.40
51863;DHT22;37900;52.996;6.278;2023-06-24T09:04:34;21.10;90.40
51863;DHT22;37900;52.996;6.278;2023-06-24T09:06:59;21.10;90.40
51863;DHT22;37900;52.996;6.278;2023-06-24T09:09:25;21.10;90.40
51863;DHT22;37900;52.996;6.278;2023-06-24T09:11:54;21.10;90.40
51863;DHT22;37900;52.996;6.278;2023-06-24T09:14:21;21.10;90.40
51863;DHT22;37900;52.996;6.278;2023-06-24T09:16:56;21.10;90.40
51863;DHT22;37900;52.996;6.278;2023-06-24T09:19:24;21.10;90.40
51863;DHT22;37900;52.996;6.278;2023-06-24T09:21:50;21.10;90.40
51863;DHT22;37900;52.996;6.278;2023-06-24T09:24:18;21.10;90.40
51863;DHT22;37900;52.996;6.278;2023-06-24T09:26:44;21.10;90.40
51863;DHT22;37900;52.996;6.278;2023-06-24T09:29:13;21.10;90.40
51863;DHT22;37900;52.996;6.278;2023-06-24T09:31:49;21.10;90.40
51863;DHT22;37900;52.996;6.278;2023-06-24T09:34:15;21.10;90.40
51863;DHT22;37900;52.996;6.278;2023-06-24T09:36:44;21.10;90.40
51863;DHT22;37900;52.996;6.278;2023-06-24T09:39:13;21.10;90.40
51863;DHT22;37900;52.996;6.278;2023-06-24T09:41:41;21.10;90.40
51863;DHT22;37900;52.996;6.278;2023-06-24T09:44:11;21.10;90.40
51863;DHT22;37900;52.996;6.278;2023-06-24T09:46:37;21.20;90.50
51863;DHT22;37900;52.996;6.278;2023-06-24T09:49:06;21.10;90.50
51863;DHT22;37900;52.996;6.278;2023-06-24T09:51:37;21.20;90.50
51863;DHT22;37900;52.996;6.278;2023-06-24T09:54:06;21.10;90.50
51863;DHT22;37900;52.996;6.278;2023-06-24T09:56:34;21.10;90.50
51863;DHT22;37900;52.996;6.278;2023-06-24T09:59:00;21.20;90.50
51863;DHT22;37900;52.996;6.278;2023-06-24T10:01:26;21.20;90.50
51863;DHT22;37900;52.996;6.278;2023-06-24T10:03:52;21.20;90.50
51863;DHT22;37900;52.996;6.278;2023-06-24T10:06:18;21.20;90.50
51863;DHT22;37900;52.996;6.278;2023-06-24T10:08:44;21.20;90.50
51863;DHT22;37900;52.996;6.278;2023-06-24T10:11:10;21.20;90.50
51863;DHT22;37900;52.996;6.278;2023-06-24T10:13:37;21.20;90.50
51863;DHT22;37900;52.996;6.278;2023-06-24T10:16:03;21.20;90.50
51863;DHT22;37900;52.996;6.278;2023-06-24T10:18:36;21.20;90.50
51863;DHT22;37900;52.996;6.278;2023-06-24T10:21:02;21.20;90.50
51863;DHT22;37900;52.996;6.278;2023-06-24T10:23:32;21.20;90.50
51863;DHT22;37900;52.996;6.278;2023-06-24T10:25:58;21.20;90.50
51863;DHT22;37900;52.996;6.278;2023-06-24T10:28:24;21.20;90.60
51863;DHT22;37900;52.996;6.278;2023-06-24T10:30:56;21.20;90.60
51863;DHT22;37900;52.996;6.278;2023-06-24T10:33:23;21.20;90.60
51863;DHT22;37900;52.996;6.278;2023-06-24T10:35:49;21.20;90.60
51863;DHT22;37900;52.996;6.278;2023-06-24T10:38:16;21.20;90.60
51863;DHT22;37900;52.996;6.278;2023-06-24T10:40:42;21.20;90.60
51863;DHT22;37900;52.996;6.278;2023-06-24T10:45:50;21.20;90.60
51863;DHT22;37900;52.996;6.278;2023-06-24T10:48:16;21.20;90.60
51863;DHT22;37900;52.996;6.278;2023-06-24T10:50:45;21.20;90.60
51863;DHT22;37900;52.996;6.278;2023-06-24T10:53:10;21.20;90.60
51863;DHT22;37900;52.996;6.278;2023-06-24T10:55:37;21.20;90.60
51863;DHT22;37900;52.996;6.278;2023-06-24T10:58:09;21.30;90.60
51863;DHT22;37900;52.996;6.278;2023-06-24T11:00:36;21.20;90.60
51863;DHT22;37900;52.996;6.278;2023-06-24T11:03:12;21.20;90.60
51863;DHT22;37900;52.996;6.278;2023-06-24T11:05:38;21.20;90.60
51863;DHT22;37900;52.996;6.278;2023-06-24T11:08:05;21.20;90.60
51863;DHT22;37900;52.996;6.278;2023-06-24T11:10:31;21.20;90.60
51863;DHT22;37900;52.996;6.278;2023-06-24T11:12:56;21.20;90.60
51863;DHT22;37900;52.996;6.278;2023-06-24T11:15:24;21.20;90.60
51863;DHT22;37900;52.996;6.278;2023-06-24T11:17:50;21.20;90.60
51863;DHT22;37900;52.996;6.278;2023-06-24T11:20:16;21.20;90.60
51863;DHT22;37900;52.996;6.278;2023-06-24T11:22:42;21.20;90.60
51863;DHT22;37900;52.996;6.278;2023-06-24T11:25:18;21.20;90.70
51863;DHT22;37900;52.996;6.278;2023-06-24T11:27:44;21.20;90.60
51863;DHT22;37900;52.996;6.278;2023-06-24T11:30:10;21.20;90.70
51863;DHT22;37900;52.996;6.278;2023-06-24T11:32:37;21.20;90.70
51863;DHT22;37900;52.996;6.278;2023-06-24T11:35:04;21.20;90.70
51863;DHT22;37900;52.996;6.278;2023-06-24T11:37:31;21.20;90.70
51863;DHT22;37900;52.996;6.278;2023-06-24T11:40:01;21.20;90.70
51863;DHT22;37900;52.996;6.278;2023-06-24T11:42:30;21.20;90.70
51863;DHT22;37900;52.996;6.278;2023-06-24T11:44:59;21.20;90.70
51863;DHT22;37900;52.996;6.278;2023-06-24T11:47:25;21.20;90.70
51863;DHT22;37900;52.996;6.278;2023-06-24T11:49:51;21.20;90.70
51863;DHT22;37900;52.996;6.278;2023-06-24T11:52:19;21.20;90.70
51863;DHT22;37900;52.996;6.278;2023-06-24T11:54:52;21.30;90.80
51863;DHT22;37900;52.996;6.278;2023-06-24T11:57:18;21.20;90.70
51863;DHT22;37900;52.996;6.278;2023-06-24T11:59:43;21.30;90.80
51863;DHT22;37900;52.996;6.278;2023-06-24T12:02:12;21.30;90.80
51863;DHT22;37900;52.996;6.278;2023-06-24T12:04:38;21.20;90.80
51863;DHT22;37900;52.996;6.278;2023-06-24T12:07:08;21.30;91.00
51863;DHT22;37900;52.996;6.278;2023-06-24T12:09:34;21.30;90.80
51863;DHT22;37900;52.996;6.278;2023-06-24T12:12:02;21.30;90.80
51863;DHT22;37900;52.996;6.278;2023-06-24T12:14:27;21.30;90.80
51863;DHT22;37900;52.996;6.278;2023-06-24T12:16:53;21.30;90.80
51863;DHT22;37900;52.996;6.278;2023-06-24T12:19:19;21.30;91.00
51863;DHT22;37900;52.996;6.278;2023-06-24T12:21:46;21.30;90.80
51863;DHT22;37900;52.996;6.278;2023-06-24T12:24:11;21.30;90.80
51863;DHT22;37900;52.996;6.278;2023-06-24T12:26:38;21.20;90.70
51863;DHT22;37900;52.996;6.278;2023-06-24T12:29:04;21.30;90.80
51863;DHT22;37900;52.996;6.278;2023-06-24T12:31:30;21.30;90.80
51863;DHT22;37900;52.996;6.278;2023-06-24T12:33:55;21.30;90.70
51863;DHT22;37900;52.996;6.278;2023-06-24T12:36:21;21.30;90.70
51863;DHT22;37900;52.996;6.278;2023-06-24T12:38:47;21.30;90.80
51863;DHT22;37900;52.996;6.278;2023-06-24T12:41:13;21.30;91.00
51863;DHT22;37900;52.996;6.278;2023-06-24T12:43:38;21.30;90.70
51863;DHT22;37900;52.996;6.278;2023-06-24T12:46:04;21.30;90.70
51863;DHT22;37900;52.996;6.278;2023-06-24T12:48:30;21.30;90.70
51863;DHT22;37900;52.996;6.278;2023-06-24T12:50:55;21.30;90.70
51863;DHT22;37900;52.996;6.278;2023-06-24T12:53:21;21.30;90.70
51863;DHT22;37900;52.996;6.278;2023-06-24T12:55:47;21.30;90.70
51863;DHT22;37900;52.996;6.278;2023-06-24T12:58:13;21.30;90.70
51863;DHT22;37900;52.996;6.278;2023-06-24T13:00:39;21.30;90.70
51863;DHT22;37900;52.996;6.278;2023-06-24T13:03:05;21.30;90.70
51863;DHT22;37900;52.996;6.278;2023-06-24T13:05:30;21.30;90.80
51863;DHT22;37900;52.996;6.278;2023-06-24T13:07:56;21.30;90.80
51863;DHT22;37900;52.996;6.278;2023-06-24T13:10:22;21.30;90.80
51863;DHT22;37900;52.996;6.278;2023-06-24T13:12:47;21.30;90.80
51863;DHT22;37900;52.996;6.278;2023-06-24T13:15:13;21.30;90.80
51863;DHT22;37900;52.996;6.278;2023-06-24T13:17:39;21.30;90.80
51863;DHT22;37900;52.996;6.278;2023-06-24T13:20:05;21.30;90.80
51863;DHT22;37900;52.996;6.278;2023-06-24T13:22:31;21.30;90.80
51863;DHT22;37900;52.996;6.278;2023-06-24T13:24:57;21.30;90.80
51863;DHT22;37900;52.996;6.278;2023-06-24T13:27:22;21.30;90.80
51863;DHT22;37900;52.996;6.278;2023-06-24T13:29:48;21.30;90.80
51863;DHT22;37900;52.996;6.278;2023-06-24T13:32:13;21.30;90.80
51863;DHT22;37900;52.996;6.278;2023-06-24T13:34:39;21.30;90.80
51863;DHT22;37900;52.996;6.278;2023-06-24T13:37:05;21.40;90.90
51863;DHT22;37900;52.996;6.278;2023-06-24T13:39:30;21.40;90.90
51863;DHT22;37900;52.996;6.278;2023-06-24T13:41:57;21.40;90.90
51863;DHT22;37900;52.996;6.278;2023-06-24T13:44:22;21.40;90.90
51863;DHT22;37900;52.996;6.278;2023-06-24T13:46:48;21.40;91.00
51863;DHT22;37900;52.996;6.278;2023-06-24T13:49:15;21.40;90.90
51863;DHT22;37900;52.996;6.278;2023-06-24T13:51:41;21.40;90.90
51863;DHT22;37900;52.996;6.278;2023-06-24T13:54:07;21.40;90.90
51863;DHT22;37900;52.996;6.278;2023-06-24T13:56:33;21.40;90.90
51863;DHT22;37900;52.996;6.278;2023-06-24T13:58:59;21.40;90.90
51863;DHT22;37900;52.996;6.278;2023-06-24T14:01:25;21.40;91.00
51863;DHT22;37900;52.996;6.278;2023-06-24T14:03:50;21.40;90.90
51863;DHT22;37900;52.996;6.278;2023-06-24T14:06:18;21.40;91.00
51863;DHT22;37900;52.996;6.278;2023-06-24T14:08:44;21.40;91.00
51863;DHT22;37900;52.996;6.278;2023-06-24T14:11:10;21.40;91.00
51863;DHT22;37900;52.996;6.278;2023-06-24T14:13:36;21.40;91.00
51863;DHT22;37900;52.996;6.278;2023-06-24T14:16:02;21.40;91.00
51863;DHT22;37900;52.996;6.278;2023-06-24T14:18:27;21.40;91.00
51863;DHT22;37900;52.996;6.278;2023-06-24T14:20:57;21.40;91.00
51863;DHT22;37900;52.996;6.278;2023-06-24T14:23:23;21.40;91.00
51863;DHT22;37900;52.996;6.278;2023-06-24T14:25:50;21.40;91.00
51863;DHT22;37900;52.996;6.278;2023-06-24T14:28:16;21.40;91.00
51863;DHT22;37900;52.996;6.278;2023-06-24T14:30:42;21.40;91.00
51863;DHT22;37900;52.996;6.278;2023-06-24T14:33:07;21.40;91.00
51863;DHT22;37900;52.996;6.278;2023-06-24T14:35:33;21.40;91.00
51863;DHT22;37900;52.996;6.278;2023-06-24T14:37:58;21.40;91.00
51863;DHT22;37900;52.996;6.278;2023-06-24T14:40:24;21.40;91.00
51863;DHT22;37900;52.996;6.278;2023-06-24T14:42:50;21.40;91.00
51863;DHT22;37900;52.996;6.278;2023-06-24T14:45:15;21.40;91.10
51863;DHT22;37900;52.996;6.278;2023-06-24T14:47:41;21.40;91.10
51863;DHT22;37900;52.996;6.278;2023-06-24T14:50:07;21.40;91.10
51863;DHT22;37900;52.996;6.278;2023-06-24T14:52:32;21.40;91.10
51863;DHT22;37900;52.996;6.278;2023-06-24T14:54:58;21.40;91.10
51863;DHT22;37900;52.996;6.278;2023-06-24T14:57:24;21.40;91.10
51863;DHT22;37900;52.996;6.278;2023-06-24T14:59:51;21.50;91.10
51863;DHT22;37900;52.996;6.278;2023-06-24T15:02:16;21.40;91.10
51863;DHT22;37900;52.996;6.278;2023-06-24T15:04:43;21.40;91.10
51863;DHT22;37900;52.996;6.278;2023-06-24T15:07:08;21.40;91.10
51863;DHT22;37900;52.996;6.278;2023-06-24T15:09:34;21.40;91.10
51863;DHT22;37900;52.996;6.278;2023-06-24T15:12:00;21.40;91.10
51863;DHT22;37900;52.996;6.278;2023-06-24T15:14:25;21.40;91.10
51863;DHT22;37900;52.996;6.278;2023-06-24T15:16:51;21.40;91.10
51863;DHT22;37900;52.996;6.278;2023-06-24T15:19:19;21.40;91.10
51863;DHT22;37900;52.996;6.278;2023-06-24T15:21:44;21.40;91.10
51863;DHT22;37900;52.996;6.278;2023-06-24T15:24:10;21.50;91.10
51863;DHT22;37900;52.996;6.278;2023-06-24T15:26:36;21.40;91.10
51863;DHT22;37900;52.996;6.278;2023-06-24T15:29:01;21.50;91.20
51863;DHT22;37900;52.996;6.278;2023-06-24T15:31:27;21.40;91.10
51863;DHT22;37900;52.996;6.278;2023-06-24T15:33:52;21.50;91.20
51863;DHT22;37900;52.996;6.278;2023-06-24T15:36:18;21.50;91.20